createdAt,value
2022-12-31T00:03:01.014Z,101222.66
2022-12-31T00:06:29.569Z,101225.03
2022-12-31T00:09:37.000Z,101219.28
2022-12-31T00:12:40.649Z,101206.78
2022-12-31T00:15:56.624Z,101204.81
2022-12-31T00:19:00.976Z,101210.75
2022-12-31T00:22:06.767Z,101215.28
2022-12-31T00:25:11.672Z,101223.00
2022-12-31T00:28:15.294Z,101225.38
2022-12-31T00:31:25.683Z,101223.03
2022-12-31T00:34:31.451Z,101241.06
2022-12-31T00:37:39.212Z,101240.47
2022-12-31T00:40:52.890Z,101236.94
2022-12-31T00:43:58.765Z,101227.38
2022-12-31T00:47:02.550Z,101234.16
2022-12-31T00:50:09.153Z,101235.41
2022-12-31T00:53:12.305Z,101239.22
2022-12-31T00:56:21.558Z,101247.41
2022-12-31T00:59:25.652Z,101240.91
2022-12-31T01:02:29.839Z,101241.47
2022-12-31T01:05:35.094Z,101249.16
2022-12-31T01:08:41.667Z,101252.56
2022-12-31T01:11:45.808Z,101256.19
2022-12-31T01:14:50.543Z,101257.00
2022-12-31T01:17:54.387Z,101257.81
2022-12-31T01:21:04.769Z,101250.28
2022-12-31T01:24:10.988Z,101255.41
2022-12-31T01:27:16.562Z,101254.37
2022-12-31T01:30:23.280Z,101249.19
2022-12-31T01:33:28.499Z,101247.13
2022-12-31T01:36:34.853Z,101257.34
2022-12-31T01:39:38.785Z,101254.00
2022-12-31T01:42:43.998Z,101246.16
2022-12-31T01:45:54.754Z,101262.12
2022-12-31T01:49:27.204Z,101263.13
2022-12-31T01:52:47.766Z,101264.47
2022-12-31T01:56:03.204Z,101260.69
2022-12-31T01:59:34.898Z,101254.91
2022-12-31T02:02:40.039Z,101252.62
2022-12-31T02:05:56.909Z,101249.12
2022-12-31T02:09:29.780Z,101252.28
2022-12-31T02:12:34.777Z,101259.12
2022-12-31T02:15:57.164Z,101272.69
2022-12-31T02:19:59.561Z,101269.16
2022-12-31T02:23:32.923Z,101266.19
2022-12-31T02:27:45.643Z,101258.53
2022-12-31T02:30:55.552Z,101267.09
2022-12-31T02:34:08.666Z,101262.22
2022-12-31T02:37:34.054Z,101252.47
2022-12-31T02:40:38.914Z,101252.66
2022-12-31T02:44:02.516Z,101267.47
2022-12-31T02:47:32.935Z,101278.66
2022-12-31T02:50:58.218Z,101278.81
2022-12-31T02:55:18.458Z,101279.19
2022-12-31T02:59:00.775Z,101280.00
2022-12-31T03:02:21.773Z,101267.47
2022-12-31T03:05:51.468Z,101264.75
2022-12-31T03:09:44.598Z,101257.44
2022-12-31T03:13:29.899Z,101247.47
2022-12-31T03:16:35.754Z,101239.97
2022-12-31T03:20:00.754Z,101242.88
2022-12-31T03:23:06.987Z,101246.41
2022-12-31T03:26:13.607Z,101250.41
2022-12-31T03:29:16.951Z,101228.34
2022-12-31T03:32:44.604Z,101240.78
2022-12-31T03:35:49.076Z,101261.47
2022-12-31T03:38:56.035Z,101242.81
2022-12-31T03:42:08.591Z,101255.25
2022-12-31T03:46:01.748Z,101249.56
2022-12-31T03:49:09.835Z,101251.53
2022-12-31T03:52:17.513Z,101250.56
2022-12-31T03:55:32.655Z,101244.88
2022-12-31T03:58:47.602Z,101244.78
2022-12-31T04:01:59.006Z,101238.44
2022-12-31T04:05:25.627Z,101241.16
2022-12-31T04:08:33.561Z,101241.53
2022-12-31T04:11:41.929Z,101255.41
2022-12-31T04:14:47.370Z,101250.47
2022-12-31T04:17:51.706Z,101250.81
2022-12-31T04:20:55.509Z,101248.03
2022-12-31T04:24:01.903Z,101248.03
2022-12-31T04:27:08.019Z,101252.59
2022-12-31T04:30:16.947Z,101260.56
2022-12-31T04:33:20.844Z,101259.31
2022-12-31T04:36:44.730Z,101259.50
2022-12-31T04:39:47.965Z,101264.84
2022-12-31T04:42:51.573Z,101281.72
2022-12-31T04:45:54.835Z,101285.69
2022-12-31T04:48:59.498Z,101288.03
2022-12-31T04:52:02.727Z,101281.53
2022-12-31T04:55:06.943Z,101293.09
2022-12-31T04:58:14.237Z,101287.75
2022-12-31T05:01:20.228Z,101301.56
2022-12-31T05:04:34.328Z,101301.37
2022-12-31T05:07:58.847Z,101309.88
2022-12-31T05:11:04.556Z,101312.41
2022-12-31T05:14:28.690Z,101307.87
2022-12-31T05:17:44.888Z,101318.19
2022-12-31T05:21:22.156Z,101323.25
2022-12-31T05:24:51.943Z,101323.16
2022-12-31T05:27:58.964Z,101323.50
2022-12-31T05:31:14.922Z,101323.31
2022-12-31T05:34:45.624Z,101332.16
2022-12-31T05:38:31.581Z,101334.97
2022-12-31T05:41:36.276Z,101332.37
2022-12-31T05:45:08.210Z,101349.69
2022-12-31T05:48:30.065Z,101355.19
2022-12-31T05:51:56.138Z,101350.22
2022-12-31T05:55:00.180Z,101372.53
2022-12-31T06:01:35.987Z,101362.59
2022-12-31T06:04:42.764Z,101359.00
2022-12-31T06:07:50.209Z,101370.81
2022-12-31T06:11:14.361Z,101360.62
2022-12-31T06:14:21.181Z,101355.94
2022-12-31T06:17:27.873Z,101359.37
2022-12-31T06:20:38.497Z,101358.28
2022-12-31T06:24:22.120Z,101368.56
2022-12-31T06:27:25.428Z,101368.22
2022-12-31T06:30:28.613Z,101350.22
2022-12-31T06:33:31.929Z,101357.62
2022-12-31T06:36:35.626Z,101362.69
2022-12-31T06:39:42.531Z,101384.47
2022-12-31T06:42:46.475Z,101388.44
2022-12-31T06:45:49.869Z,101390.78
2022-12-31T06:48:55.631Z,101383.66
2022-12-31T06:52:04.405Z,101394.31
2022-12-31T06:55:27.495Z,101389.72
2022-12-31T06:58:30.590Z,101385.00
2022-12-31T07:01:46.080Z,101377.75
2022-12-31T07:05:30.716Z,101390.41
2022-12-31T07:08:54.521Z,101385.63
2022-12-31T07:12:44.914Z,101395.12
2022-12-31T07:16:02.669Z,101396.37
2022-12-31T07:19:32.214Z,101404.31
2022-12-31T07:23:30.451Z,101409.75
2022-12-31T07:27:54.624Z,101411.38
2022-12-31T07:31:49.437Z,101406.22
2022-12-31T07:35:00.366Z,101412.97
2022-12-31T07:38:25.245Z,101420.66
2022-12-31T07:42:01.309Z,101422.66
2022-12-31T07:45:21.314Z,101419.81
2022-12-31T07:48:30.410Z,101419.09
2022-12-31T07:51:38.146Z,101411.12
2022-12-31T07:54:53.856Z,101424.47
2022-12-31T07:58:47.345Z,101427.38
2022-12-31T08:02:03.689Z,101433.44
2022-12-31T08:05:27.671Z,101425.38
2022-12-31T08:09:11.827Z,101429.13
2022-12-31T08:13:43.022Z,101434.91
2022-12-31T08:39:02.592Z,101494.50
2022-12-31T08:48:30.034Z,101517.41
2022-12-31T08:52:09.205Z,101508.78
2022-12-31T08:57:27.926Z,101512.53
2022-12-31T09:36:38.002Z,101489.50
2022-12-31T09:40:59.618Z,101504.59
2022-12-31T09:50:11.605Z,101475.06
2022-12-31T09:54:15.356Z,101477.72
2022-12-31T09:58:46.944Z,101452.62
2022-12-31T10:02:25.682Z,101449.47
2022-12-31T10:06:03.729Z,101450.94
2022-12-31T10:19:27.917Z,101428.53
2022-12-31T10:22:51.554Z,101434.19
2022-12-31T10:26:42.274Z,101437.88
2022-12-31T10:29:59.737Z,101444.22
2022-12-31T10:33:21.721Z,101437.81
2022-12-31T10:37:26.284Z,101452.47
2022-12-31T10:41:05.888Z,101456.03
2022-12-31T10:45:05.249Z,101472.53
2022-12-31T10:49:39.846Z,101448.81
2022-12-31T10:54:13.591Z,101458.53
2022-12-31T10:58:50.646Z,101434.25
2022-12-31T11:02:34.514Z,101453.44
2022-12-31T11:06:13.701Z,101427.66
2022-12-31T11:10:14.415Z,101454.69
2022-12-31T11:14:11.355Z,101441.06
2022-12-31T11:17:38.027Z,101447.69
2022-12-31T11:21:51.890Z,101426.97
2022-12-31T11:25:08.642Z,101398.12
2022-12-31T11:28:34.409Z,101441.50
2022-12-31T11:32:16.141Z,101435.88
2022-12-31T11:35:45.650Z,101429.63
2022-12-31T11:39:32.189Z,101423.97
2022-12-31T11:43:15.171Z,101433.19
2022-12-31T11:47:04.568Z,101430.44
2022-12-31T11:50:13.476Z,101430.06
2022-12-31T11:53:16.900Z,101426.91
2022-12-31T11:56:34.201Z,101425.84
2022-12-31T12:00:01.689Z,101407.84
2022-12-31T12:03:18.935Z,101408.66
2022-12-31T12:06:46.405Z,101418.59
2022-12-31T12:09:51.754Z,101430.78
2022-12-31T12:13:03.707Z,101435.81
2022-12-31T12:16:09.422Z,101439.44
2022-12-31T12:19:19.365Z,101433.03
2022-12-31T12:22:36.827Z,101439.12
2022-12-31T12:26:52.319Z,101434.84
2022-12-31T12:30:24.556Z,101433.81
2022-12-31T12:34:00.475Z,101438.28
2022-12-31T12:37:34.724Z,101439.28
2022-12-31T12:41:10.580Z,101449.22
2022-12-31T12:44:19.713Z,101440.72
2022-12-31T12:47:28.946Z,101447.59
2022-12-31T12:50:42.425Z,101430.19
2022-12-31T12:54:46.228Z,101413.53
2022-12-31T13:04:23.797Z,101424.91
2022-12-31T13:20:22.193Z,101409.50
2022-12-31T13:25:03.588Z,101426.31
2022-12-31T13:28:49.196Z,101445.16
2022-12-31T13:32:40.210Z,101443.94
2022-12-31T13:35:54.129Z,101435.41
2022-12-31T13:39:02.358Z,101437.84
2022-12-31T13:42:27.597Z,101432.53
2022-12-31T13:45:38.889Z,101440.25
2022-12-31T13:48:53.584Z,101463.41
2022-12-31T13:52:27.410Z,101445.97
2022-12-31T13:55:36.749Z,101443.94
2022-12-31T13:58:57.955Z,101451.47
2022-12-31T14:02:35.546Z,101425.31
2022-12-31T14:05:52.728Z,101434.66
2022-12-31T14:08:57.848Z,101436.87
2022-12-31T14:12:31.133Z,101446.34
2022-12-31T14:15:52.757Z,101452.66
2022-12-31T14:19:07.398Z,101461.78
2022-12-31T14:22:18.949Z,101454.88
2022-12-31T14:26:23.852Z,101455.72
2022-12-31T14:29:50.353Z,101460.56
2022-12-31T14:33:43.671Z,101458.97
2022-12-31T14:37:17.215Z,101471.53
2022-12-31T14:41:23.962Z,101470.66
2022-12-31T14:44:54.326Z,101474.31
2022-12-31T14:48:09.595Z,101466.19
2022-12-31T14:51:15.064Z,101467.94
2022-12-31T14:55:24.487Z,101454.69
2022-12-31T14:58:54.071Z,101467.31
2022-12-31T15:02:33.769Z,101450.19
2022-12-31T15:05:53.251Z,101465.31
2022-12-31T15:09:17.911Z,101461.66
2022-12-31T15:12:29.028Z,101452.75
2022-12-31T15:15:43.052Z,101459.16
2022-12-31T15:19:11.999Z,101449.09
2022-12-31T15:22:37.652Z,101444.41
2022-12-31T15:25:48.385Z,101454.63
2022-12-31T15:29:51.294Z,101446.59
2022-12-31T15:33:27.211Z,101443.75
2022-12-31T15:36:34.611Z,101447.78
2022-12-31T15:39:44.566Z,101467.19
2022-12-31T15:42:58.341Z,101478.53
2022-12-31T15:46:06.079Z,101464.22
2022-12-31T15:49:23.854Z,101453.19
2022-12-31T15:53:02.464Z,101452.72
2022-12-31T15:56:49.011Z,101473.84
2022-12-31T16:00:24.983Z,101468.81
2022-12-31T16:03:36.734Z,101466.97
2022-12-31T16:06:46.074Z,101465.97
2022-12-31T16:10:50.372Z,101482.56
2022-12-31T16:14:00.732Z,101474.44
2022-12-31T16:17:38.633Z,101469.66
2022-12-31T16:20:50.772Z,101470.81
2022-12-31T16:24:35.219Z,101478.88
2022-12-31T16:28:01.746Z,101474.44
2022-12-31T16:31:29.199Z,101470.34
2022-12-31T16:34:38.324Z,101460.25
2022-12-31T16:37:42.751Z,101457.37
2022-12-31T16:41:03.881Z,101465.03
2022-12-31T16:44:24.873Z,101457.59
2022-12-31T16:47:40.662Z,101459.78
2022-12-31T16:50:49.687Z,101470.22
2022-12-31T16:53:53.109Z,101479.09
2022-12-31T16:56:59.003Z,101467.97
2022-12-31T17:00:07.289Z,101474.59
2022-12-31T17:03:16.785Z,101466.31
2022-12-31T17:06:21.263Z,101471.22
2022-12-31T17:09:37.284Z,101484.13
2022-12-31T17:13:25.546Z,101473.13
2022-12-31T17:16:09.015Z,101465.41
2022-12-31T17:19:42.042Z,101479.03
2022-12-31T17:22:46.020Z,101484.28
2022-12-31T17:25:49.427Z,101488.16
2022-12-31T17:28:54.445Z,101491.78
2022-12-31T17:32:07.670Z,101479.16
2022-12-31T17:35:43.856Z,101480.69
2022-12-31T17:38:47.841Z,101488.31
2022-12-31T17:41:58.508Z,101494.47
2022-12-31T17:45:16.323Z,101492.00
2022-12-31T17:48:23.401Z,101506.16
2022-12-31T17:51:29.568Z,101495.91
2022-12-31T17:54:32.920Z,101509.41
2022-12-31T17:57:36.436Z,101502.16
2022-12-31T18:00:39.886Z,101504.22
2022-12-31T18:03:44.457Z,101509.31
2022-12-31T18:06:47.175Z,101518.53
2022-12-31T18:09:53.793Z,101526.13
2022-12-31T18:12:59.228Z,101517.91
2022-12-31T18:16:02.441Z,101513.78
2022-12-31T18:19:23.531Z,101500.31
2022-12-31T18:22:38.063Z,101497.34
2022-12-31T18:28:43.794Z,101497.03
2022-12-31T18:31:49.489Z,101501.47
2022-12-31T18:34:53.237Z,101510.25
2022-12-31T18:38:00.296Z,101503.28
2022-12-31T18:41:19.779Z,101501.56
2022-12-31T18:44:27.531Z,101504.19
2022-12-31T18:47:37.299Z,101510.22
2022-12-31T18:50:44.402Z,101508.94
2022-12-31T18:53:48.515Z,101521.44
2022-12-31T18:56:57.072Z,101513.28
2022-12-31T19:00:00.788Z,101527.25
2022-12-31T19:03:06.367Z,101533.03
2022-12-31T19:06:10.333Z,101528.00
2022-12-31T19:09:43.504Z,101531.59
2022-12-31T19:12:37.696Z,101531.59
2022-12-31T19:15:50.901Z,101524.63
2022-12-31T19:18:54.846Z,101531.84
2022-12-31T19:21:58.035Z,101524.06
2022-12-31T19:25:02.565Z,101526.84
2022-12-31T19:28:13.368Z,101527.53
2022-12-31T19:31:18.993Z,101533.97
2022-12-31T19:34:26.007Z,101536.75
2022-12-31T19:37:30.560Z,101528.44
2022-12-31T19:40:38.054Z,101529.41
2022-12-31T19:43:43.793Z,101521.00
2022-12-31T19:46:47.191Z,101523.03
2022-12-31T19:49:50.974Z,101515.81
2022-12-31T19:52:57.510Z,101516.88
2022-12-31T19:56:03.023Z,101523.69
2022-12-31T19:59:07.847Z,101522.09
2022-12-31T20:02:31.200Z,101519.19
2022-12-31T20:05:38.801Z,101509.34
2022-12-31T20:08:44.714Z,101517.63
2022-12-31T20:12:07.891Z,101503.75
2022-12-31T20:15:11.601Z,101505.91
2022-12-31T20:18:20.971Z,101517.12
2022-12-31T20:21:28.942Z,101513.22
2022-12-31T20:24:34.285Z,101507.53
2022-12-31T20:27:39.743Z,101496.69
2022-12-31T20:30:45.989Z,101501.94
2022-12-31T20:33:49.999Z,101499.31
2022-12-31T20:36:56.227Z,101507.06
2022-12-31T20:40:00.851Z,101496.59
2022-12-31T20:43:06.888Z,101496.12
2022-12-31T20:50:10.178Z,101508.06
2022-12-31T20:53:11.593Z,101503.66
2022-12-31T20:56:16.535Z,101502.06
2022-12-31T20:59:26.319Z,101505.28
2022-12-31T21:02:42.162Z,101507.59
2022-12-31T21:05:53.473Z,101507.97
2022-12-31T21:08:59.495Z,101504.06
2022-12-31T21:12:28.799Z,101503.88
2022-12-31T21:15:32.267Z,101495.91
2022-12-31T21:18:35.341Z,101492.00
2022-12-31T21:21:50.990Z,101501.97
2022-12-31T21:24:54.127Z,101494.97
2022-12-31T21:27:58.004Z,101510.28
2022-12-31T21:31:06.395Z,101507.22
2022-12-31T21:34:15.857Z,101514.53
2022-12-31T21:37:19.723Z,101530.94
2022-12-31T21:40:27.269Z,101528.78
2022-12-31T21:43:35.950Z,101537.81
2022-12-31T21:46:54.614Z,101532.25
2022-12-31T21:50:16.063Z,101529.31
2022-12-31T21:53:36.621Z,101537.66
2022-12-31T21:56:44.776Z,101535.84
2022-12-31T22:00:40.435Z,101543.50
2022-12-31T22:03:43.414Z,101543.66
2022-12-31T22:06:56.879Z,101550.22
2022-12-31T22:10:03.391Z,101556.75
2022-12-31T22:13:10.637Z,101563.62
2022-12-31T22:16:20.431Z,101558.09
2022-12-31T22:19:23.379Z,101553.53
2022-12-31T22:22:26.823Z,101557.47
2022-12-31T22:25:39.626Z,101552.88
2022-12-31T22:28:44.361Z,101549.63
2022-12-31T22:31:49.969Z,101550.12
2022-12-31T22:34:53.088Z,101549.63
2022-12-31T22:38:03.279Z,101549.97
2022-12-31T22:41:21.445Z,101544.41
2022-12-31T22:44:30.799Z,101548.47
2022-12-31T22:47:33.824Z,101550.09
2022-12-31T22:50:38.269Z,101540.12
2022-12-31T22:53:43.684Z,101535.03
2022-12-31T22:56:48.927Z,101537.84
2022-12-31T23:00:02.554Z,101538.50
2022-12-31T23:03:12.409Z,101524.66
2022-12-31T23:06:43.953Z,101522.84
2022-12-31T23:10:06.249Z,101531.50
2022-12-31T23:13:28.726Z,101530.06
2022-12-31T23:16:50.318Z,101523.19
2022-12-31T23:20:15.733Z,101522.72
2022-12-31T23:23:21.528Z,101524.72
2022-12-31T23:26:24.598Z,101528.78
2022-12-31T23:29:30.170Z,101520.47
2022-12-31T23:32:33.823Z,101519.00
2022-12-31T23:35:38.069Z,101525.84
2022-12-31T23:38:53.936Z,101537.94
2022-12-31T23:42:00.933Z,101546.59
2022-12-31T23:45:04.530Z,101540.22
2022-12-31T23:48:07.885Z,101533.03
2022-12-31T23:51:11.506Z,101535.66
2022-12-31T23:54:18.401Z,101536.47
2022-12-31T23:57:22.980Z,101530.59
